createdAt,value
2018-03-29T00:00:21.518Z,3.60
2018-03-29T00:01:27.590Z,3.52
2018-03-29T00:02:33.675Z,3.54
2018-03-29T00:03:39.768Z,3.56
2018-03-29T00:04:45.859Z,3.62
2018-03-29T00:05:51.964Z,3.56
2018-03-29T00:06:58.039Z,3.58
2018-03-29T00:08:04.133Z,3.52
2018-03-29T00:09:10.215Z,3.50
2018-03-29T00:10:16.308Z,3.44
2018-03-29T00:11:22.408Z,3.43
2018-03-29T00:12:28.468Z,3.42
2018-03-29T00:13:34.568Z,3.52
2018-03-29T00:14:40.652Z,3.53
2018-03-29T00:15:46.754Z,3.50
2018-03-29T00:16:52.826Z,3.44
2018-03-29T00:17:58.909Z,3.42
2018-03-29T00:19:04.991Z,3.47
2018-03-29T00:20:11.076Z,3.51
2018-03-29T00:21:17.184Z,3.50
2018-03-29T00:22:23.244Z,3.53
2018-03-29T00:23:29.832Z,3.65
2018-03-29T00:24:35.901Z,3.61
2018-03-29T00:25:41.499Z,3.53
2018-03-29T00:26:47.595Z,3.47
2018-03-29T00:27:53.654Z,3.42
2018-03-29T00:28:59.740Z,3.40
2018-03-29T00:30:05.810Z,3.49
2018-03-29T00:31:11.935Z,3.54
2018-03-29T00:32:17.983Z,3.44
2018-03-29T00:33:24.048Z,3.34
2018-03-29T00:34:30.124Z,3.31
2018-03-29T00:35:36.208Z,3.23
2018-03-29T00:36:42.320Z,3.15
2018-03-29T00:37:48.364Z,3.11
2018-03-29T00:38:54.429Z,3.09
2018-03-29T00:40:00.517Z,3.14
2018-03-29T00:41:06.593Z,3.02
2018-03-29T00:42:12.682Z,3.06
2018-03-29T00:43:18.931Z,3.08
2018-03-29T00:44:24.824Z,3.05
2018-03-29T00:45:30.892Z,3.09
2018-03-29T00:46:36.988Z,3.03
2018-03-29T00:47:43.032Z,2.99
2018-03-29T00:48:49.109Z,2.93
2018-03-29T00:49:55.182Z,2.96
2018-03-29T00:51:01.247Z,2.85
2018-03-29T00:52:07.341Z,2.69
2018-03-29T00:53:13.395Z,2.53
2018-03-29T00:54:19.478Z,2.57
2018-03-29T00:55:25.533Z,2.55
2018-03-29T00:56:31.595Z,2.45
2018-03-29T00:57:37.687Z,2.37
2018-03-29T00:58:43.745Z,2.25
2018-03-29T00:59:49.796Z,2.09
2018-03-29T01:00:55.870Z,2.02
2018-03-29T01:02:01.952Z,2.07
2018-03-29T01:03:08.022Z,1.97
2018-03-29T01:04:14.060Z,1.89
2018-03-29T01:05:20.135Z,1.96
2018-03-29T01:06:26.200Z,2.27
2018-03-29T01:07:33.456Z,2.42
2018-03-29T01:08:38.327Z,2.37
2018-03-29T01:09:44.382Z,2.35
2018-03-29T01:10:50.445Z,2.32
2018-03-29T01:11:56.506Z,2.29
2018-03-29T01:13:02.584Z,2.18
2018-03-29T01:14:08.633Z,2.15
2018-03-29T01:15:14.688Z,2.10
2018-03-29T01:16:20.759Z,2.13
2018-03-29T01:17:26.866Z,2.15
2018-03-29T01:18:32.880Z,2.07
2018-03-29T01:19:38.936Z,2.00
2018-03-29T01:20:44.996Z,1.93
2018-03-29T01:21:51.070Z,1.79
2018-03-29T01:22:57.155Z,1.65
2018-03-29T01:24:03.180Z,1.57
2018-03-29T01:25:09.255Z,1.58
2018-03-29T01:26:15.304Z,1.58
2018-03-29T01:27:21.362Z,1.67
2018-03-29T01:28:27.427Z,1.88
2018-03-29T01:29:33.473Z,1.80
2018-03-29T01:30:39.528Z,1.75
2018-03-29T01:31:45.583Z,1.74
2018-03-29T01:32:51.649Z,1.67
2018-03-29T01:33:57.736Z,1.65
2018-03-29T01:35:03.763Z,1.56
2018-03-29T01:36:09.823Z,1.52
2018-03-29T01:37:15.869Z,1.50
2018-03-29T01:38:21.966Z,1.60
2018-03-29T01:39:27.997Z,1.53
2018-03-29T01:40:34.053Z,1.51
2018-03-29T01:41:40.113Z,1.58
2018-03-29T01:42:46.171Z,1.63
2018-03-29T01:43:52.244Z,1.71
2018-03-29T01:44:58.279Z,1.76
2018-03-29T01:46:04.341Z,1.80
2018-03-29T01:47:10.403Z,1.88
2018-03-29T01:48:16.453Z,1.97
2018-03-29T01:49:22.544Z,2.15
2018-03-29T01:50:28.581Z,2.18
2018-03-29T01:51:34.642Z,2.17
2018-03-29T01:52:40.699Z,2.15
2018-03-29T01:53:46.786Z,2.18
2018-03-29T01:54:52.822Z,2.27
2018-03-29T01:55:58.892Z,2.34
2018-03-29T01:57:04.961Z,2.55
2018-03-29T01:58:11.025Z,2.78
2018-03-29T01:59:17.108Z,2.76
2018-03-29T02:00:23.152Z,2.87
2018-03-29T02:01:29.208Z,2.82
2018-03-29T02:02:35.291Z,2.66
2018-03-29T02:03:41.338Z,2.52
2018-03-29T02:04:47.433Z,2.47
2018-03-29T02:05:53.471Z,2.41
2018-03-29T02:06:59.527Z,2.33
2018-03-29T02:08:05.600Z,2.37
2018-03-29T02:09:11.688Z,2.38
2018-03-29T02:10:17.729Z,2.36
2018-03-29T02:11:23.791Z,2.31
2018-03-29T02:12:29.852Z,2.31
2018-03-29T02:13:35.926Z,2.29
2018-03-29T02:14:41.999Z,2.26
2018-03-29T02:15:48.042Z,2.33
2018-03-29T02:16:54.122Z,2.35
2018-03-29T02:18:00.179Z,2.30
2018-03-29T02:19:06.245Z,2.40
2018-03-29T02:20:12.816Z,2.33
2018-03-29T02:21:18.368Z,2.43
2018-03-29T02:22:24.446Z,2.55
2018-03-29T02:23:30.497Z,2.44
2018-03-29T02:24:36.561Z,2.61
2018-03-29T02:25:42.647Z,2.54
2018-03-29T02:26:48.675Z,2.48
2018-03-29T02:27:54.742Z,2.31
2018-03-29T02:29:00.807Z,2.30
2018-03-29T02:30:06.960Z,2.41
2018-03-29T02:31:13.926Z,2.52
2018-03-29T02:32:18.994Z,2.63
2018-03-29T02:33:25.049Z,2.70
2018-03-29T02:34:31.115Z,2.78
2018-03-29T02:35:37.206Z,2.80
2018-03-29T02:36:43.250Z,2.84
2018-03-29T02:37:49.306Z,2.80
2018-03-29T02:38:55.374Z,2.80
2018-03-29T02:40:01.456Z,2.74
2018-03-29T02:41:07.495Z,2.70
2018-03-29T02:42:13.564Z,2.68
2018-03-29T02:43:19.636Z,2.68
2018-03-29T02:44:25.696Z,2.60
2018-03-29T02:45:31.778Z,2.48
2018-03-29T02:46:37.824Z,2.38
2018-03-29T02:47:44.085Z,2.31
2018-03-29T02:48:49.955Z,2.20
2018-03-29T02:49:56.028Z,2.10
2018-03-29T02:51:02.107Z,2.05
2018-03-29T02:52:08.155Z,2.08
2018-03-29T02:53:14.217Z,2.20
2018-03-29T02:54:20.274Z,2.33
2018-03-29T02:55:26.350Z,2.22
2018-03-29T02:56:32.423Z,2.07
2018-03-29T02:57:38.457Z,1.97
2018-03-29T02:58:44.526Z,1.91
2018-03-29T02:59:50.589Z,1.87
2018-03-29T03:00:56.669Z,1.80
2018-03-29T03:02:02.706Z,1.76
2018-03-29T03:03:08.762Z,1.74
2018-03-29T03:04:14.827Z,1.73
2018-03-29T03:05:20.891Z,1.65
2018-03-29T03:06:26.966Z,1.52
2018-03-29T03:07:33.018Z,1.46
2018-03-29T03:08:39.075Z,1.44
2018-03-29T03:09:45.631Z,1.44
2018-03-29T03:10:51.184Z,1.42
2018-03-29T03:11:57.267Z,1.41
2018-03-29T03:13:03.310Z,1.38
2018-03-29T03:14:09.375Z,1.31
2018-03-29T03:15:15.430Z,1.25
2018-03-29T03:16:21.489Z,1.20
2018-03-29T03:17:27.569Z,1.14
2018-03-29T03:18:33.595Z,1.14
2018-03-29T03:19:39.660Z,1.20
2018-03-29T03:20:45.716Z,1.14
2018-03-29T03:21:51.806Z,1.12
2018-03-29T03:22:57.832Z,1.08
2018-03-29T03:24:03.887Z,1.05
2018-03-29T03:25:09.944Z,1.11
2018-03-29T03:26:15.996Z,1.12
2018-03-29T03:27:22.068Z,1.23
2018-03-29T03:28:28.108Z,1.25
2018-03-29T03:29:34.175Z,1.25
2018-03-29T03:30:40.233Z,1.20
2018-03-29T03:31:46.319Z,1.15
2018-03-29T03:32:52.324Z,1.17
2018-03-29T03:33:58.383Z,1.23
2018-03-29T03:35:04.439Z,1.30
2018-03-29T03:36:10.507Z,1.32
2018-03-29T03:37:16.584Z,1.35
2018-03-29T03:38:22.616Z,1.37
2018-03-29T03:39:28.678Z,1.35
2018-03-29T03:40:34.719Z,1.32
2018-03-29T03:41:40.760Z,1.40
2018-03-29T03:42:46.834Z,1.43
2018-03-29T03:43:52.943Z,1.41
2018-03-29T03:44:58.921Z,1.27
2018-03-29T03:46:04.963Z,1.19
2018-03-29T03:47:11.027Z,1.14
2018-03-29T03:48:17.098Z,1.06
2018-03-29T03:49:23.136Z,0.97
2018-03-29T03:50:29.194Z,0.91
2018-03-29T03:51:35.229Z,0.87
2018-03-29T03:52:41.283Z,0.89
2018-03-29T03:53:47.372Z,0.95
2018-03-29T03:54:53.381Z,0.99
2018-03-29T03:55:59.474Z,0.98
2018-03-29T03:57:05.482Z,0.96
2018-03-29T03:58:11.527Z,0.91
2018-03-29T03:59:18.086Z,0.86
2018-03-29T04:00:23.615Z,0.85
2018-03-29T04:01:29.664Z,0.88
2018-03-29T04:02:35.713Z,0.83
2018-03-29T04:03:41.771Z,0.76
2018-03-29T04:04:47.796Z,0.69
2018-03-29T04:05:53.840Z,0.68
2018-03-29T04:06:59.873Z,0.74
2018-03-29T04:08:05.919Z,0.86
2018-03-29T04:09:11.992Z,0.87
2018-03-29T04:10:18.012Z,0.90
2018-03-29T04:11:24.058Z,0.95
2018-03-29T04:12:31.096Z,0.98
2018-03-29T04:13:36.166Z,1.03
2018-03-29T04:14:42.208Z,1.06
2018-03-29T04:15:48.231Z,1.10
2018-03-29T04:16:54.269Z,1.18
2018-03-29T04:18:00.315Z,1.26
2018-03-29T04:19:06.392Z,1.31
2018-03-29T04:20:12.412Z,1.30
2018-03-29T04:21:18.460Z,1.27
2018-03-29T04:22:24.525Z,1.25
2018-03-29T04:23:30.563Z,1.32
2018-03-29T04:24:36.612Z,1.32
2018-03-29T04:25:42.634Z,1.31
2018-03-29T04:26:48.686Z,1.35
2018-03-29T04:27:54.723Z,1.39
2018-03-29T04:29:00.773Z,1.39
2018-03-29T04:30:06.840Z,1.36
2018-03-29T04:31:12.858Z,1.34
2018-03-29T04:32:18.908Z,1.33
2018-03-29T04:33:24.956Z,1.36
2018-03-29T04:34:31.011Z,1.43
2018-03-29T04:35:37.071Z,1.47
2018-03-29T04:36:43.204Z,1.53
2018-03-29T04:37:49.185Z,1.49
2018-03-29T04:38:55.186Z,1.50
2018-03-29T04:40:01.226Z,1.53
2018-03-29T04:41:07.283Z,1.56
2018-03-29T04:42:13.321Z,1.62
2018-03-29T04:43:19.355Z,1.65
2018-03-29T04:44:25.426Z,1.68
2018-03-29T04:45:31.471Z,1.70
2018-03-29T04:46:37.491Z,1.73
2018-03-29T04:47:43.545Z,1.78
2018-03-29T04:48:49.586Z,1.84
2018-03-29T04:49:55.634Z,1.86
2018-03-29T04:51:01.710Z,1.89
2018-03-29T04:52:07.773Z,1.91
2018-03-29T04:53:13.781Z,1.93
2018-03-29T04:54:19.832Z,1.99
2018-03-29T04:55:25.911Z,2.07
2018-03-29T04:56:31.937Z,2.10
2018-03-29T04:57:37.982Z,2.15
2018-03-29T04:58:44.041Z,2.20
2018-03-29T04:59:50.085Z,2.27
2018-03-29T05:00:56.157Z,2.31
2018-03-29T05:02:02.206Z,2.32
2018-03-29T05:03:08.261Z,2.32
2018-03-29T05:04:14.325Z,2.37
2018-03-29T05:05:20.380Z,2.40
2018-03-29T05:06:26.462Z,2.44
2018-03-29T05:07:32.490Z,2.47
2018-03-29T05:08:38.569Z,2.46
2018-03-29T05:09:44.618Z,2.45
2018-03-29T05:10:50.673Z,2.48
2018-03-29T05:11:56.753Z,2.51
2018-03-29T05:13:02.820Z,2.51
2018-03-29T05:14:08.943Z,2.53
2018-03-29T05:15:14.978Z,2.56
2018-03-29T05:16:21.042Z,2.57
2018-03-29T05:17:27.061Z,2.59
2018-03-29T05:18:33.130Z,2.58
2018-03-29T05:19:39.679Z,2.62
2018-03-29T05:20:45.261Z,2.64
2018-03-29T05:21:51.354Z,2.63
2018-03-29T05:22:57.412Z,2.62
2018-03-29T05:24:03.471Z,2.63
2018-03-29T05:25:09.543Z,2.65
2018-03-29T05:26:15.614Z,2.66
2018-03-29T05:27:21.711Z,2.68
2018-03-29T05:28:27.794Z,2.73
2018-03-29T05:29:33.834Z,2.77
2018-03-29T05:30:39.905Z,2.78
2018-03-29T05:31:46.004Z,2.79
2018-03-29T05:32:52.052Z,2.81
2018-03-29T05:33:58.126Z,2.80
2018-03-29T05:35:04.198Z,2.79
2018-03-29T05:36:10.264Z,2.80
2018-03-29T05:37:16.377Z,2.79
2018-03-29T05:38:22.426Z,2.80
2018-03-29T05:39:28.502Z,2.79
2018-03-29T05:40:34.570Z,2.78
2018-03-29T05:41:40.684Z,2.80
2018-03-29T05:42:47.042Z,2.79
2018-03-29T05:43:52.803Z,2.80
2018-03-29T05:44:58.893Z,2.80
2018-03-29T05:46:04.966Z,2.80
2018-03-29T05:47:11.060Z,2.83
2018-03-29T05:48:17.122Z,2.86
2018-03-29T05:49:23.192Z,2.86
2018-03-29T05:50:29.275Z,2.86
2018-03-29T05:51:35.358Z,2.87
2018-03-29T05:52:41.464Z,2.94
2018-03-29T05:53:47.516Z,2.98
2018-03-29T05:54:53.596Z,3.01
2018-03-29T05:55:59.685Z,3.04
2018-03-29T05:57:05.786Z,3.03
2018-03-29T05:58:11.831Z,3.05
2018-03-29T05:59:17.921Z,3.10
2018-03-29T06:00:24.008Z,3.19
2018-03-29T06:01:30.577Z,3.24
2018-03-29T06:02:36.180Z,3.26
2018-03-29T06:03:42.243Z,3.28
2018-03-29T06:04:48.329Z,3.29
2018-03-29T06:05:54.417Z,3.31
2018-03-29T06:07:00.508Z,3.34
2018-03-29T06:08:06.608Z,3.38
2018-03-29T06:09:12.681Z,3.41
2018-03-29T06:10:18.790Z,3.46
2018-03-29T06:11:24.857Z,3.52
2018-03-29T06:12:30.961Z,3.54
2018-03-29T06:13:37.069Z,3.57
2018-03-29T06:14:43.140Z,3.59
2018-03-29T06:15:49.248Z,3.62
2018-03-29T06:16:55.342Z,3.65
2018-03-29T06:18:01.444Z,3.68
2018-03-29T06:19:07.561Z,3.71
2018-03-29T06:20:13.646Z,3.74
2018-03-29T06:21:19.740Z,3.79
2018-03-29T06:22:25.870Z,3.83
2018-03-29T06:23:31.979Z,3.87
2018-03-29T06:24:38.081Z,3.93
2018-03-29T06:25:44.169Z,3.99
2018-03-29T06:26:50.282Z,4.04
2018-03-29T06:27:56.382Z,4.10
2018-03-29T06:29:02.527Z,4.14
2018-03-29T06:30:08.640Z,4.20
2018-03-29T06:31:14.722Z,4.26
2018-03-29T06:32:20.930Z,4.32
2018-03-29T06:33:26.956Z,4.40
2018-03-29T06:34:33.107Z,4.47
2018-03-29T06:35:39.192Z,4.54
2018-03-29T06:36:45.332Z,4.60
2018-03-29T06:37:51.455Z,4.66
2018-03-29T06:38:57.596Z,4.72
2018-03-29T06:40:03.686Z,4.79
2018-03-29T06:41:09.828Z,4.86
2018-03-29T06:42:15.948Z,4.88
2018-03-29T06:43:22.078Z,4.89
2018-03-29T06:44:28.233Z,4.91
2018-03-29T06:45:34.357Z,4.90
2018-03-29T06:46:40.481Z,4.94
2018-03-29T06:47:46.601Z,5.01
2018-03-29T06:48:52.751Z,5.07
2018-03-29T06:49:58.903Z,5.11
2018-03-29T06:51:05.019Z,5.14
2018-03-29T06:52:11.153Z,5.16
2018-03-29T06:53:17.295Z,5.14
2018-03-29T06:54:23.424Z,5.09
2018-03-29T06:55:29.585Z,5.06
2018-03-29T06:56:35.713Z,5.01
2018-03-29T06:57:41.862Z,4.99
2018-03-29T06:58:47.986Z,5.01
2018-03-29T06:59:54.124Z,5.05
2018-03-29T07:01:00.346Z,5.08
2018-03-29T07:02:06.397Z,5.11
2018-03-29T07:03:12.528Z,5.11
2018-03-29T07:04:18.664Z,5.11
2018-03-29T07:05:24.821Z,5.15
2018-03-29T07:06:30.947Z,5.24
2018-03-29T07:07:37.090Z,5.32
2018-03-29T07:08:43.238Z,5.37
2018-03-29T07:09:49.368Z,5.43
2018-03-29T07:10:55.544Z,5.44
2018-03-29T07:12:01.672Z,5.44
2018-03-29T07:13:07.818Z,5.47
2018-03-29T07:14:13.966Z,5.53
2018-03-29T07:15:20.125Z,5.63
2018-03-29T07:16:26.300Z,5.72
2018-03-29T07:17:32.424Z,5.78
2018-03-29T07:18:38.586Z,5.86
2018-03-29T07:19:44.753Z,5.88
2018-03-29T07:20:50.927Z,5.89
2018-03-29T07:21:57.065Z,5.87
2018-03-29T07:23:03.255Z,5.81
2018-03-29T07:24:09.385Z,5.59
2018-03-29T07:25:15.538Z,5.30
2018-03-29T07:26:21.716Z,5.03
2018-03-29T07:27:27.845Z,4.83
2018-03-29T07:28:34.502Z,4.69
2018-03-29T07:29:40.152Z,4.63
2018-03-29T07:30:46.297Z,4.62
2018-03-29T07:31:52.471Z,4.64
2018-03-29T07:32:58.610Z,4.68
2018-03-29T07:34:04.727Z,4.71
2018-03-29T07:35:10.879Z,4.71
2018-03-29T07:36:17.036Z,4.70
2018-03-29T07:37:23.175Z,4.67
2018-03-29T07:38:29.296Z,4.66
2018-03-29T07:39:35.418Z,4.64
2018-03-29T07:40:41.556Z,4.65
2018-03-29T07:41:47.706Z,4.65
2018-03-29T07:42:53.831Z,4.67
2018-03-29T07:43:59.949Z,4.70
2018-03-29T07:45:06.113Z,4.74
2018-03-29T07:46:12.211Z,4.76
2018-03-29T07:47:18.370Z,4.81
2018-03-29T07:48:24.788Z,4.86
2018-03-29T07:49:30.642Z,4.91
2018-03-29T07:50:36.751Z,4.96
2018-03-29T07:51:42.898Z,4.99
2018-03-29T07:52:49.014Z,5.01
2018-03-29T07:53:55.154Z,5.00
2018-03-29T07:55:01.290Z,5.00
2018-03-29T07:56:07.409Z,5.03
2018-03-29T07:57:13.582Z,5.05
2018-03-29T07:58:19.676Z,5.08
2018-03-29T07:59:25.820Z,5.11
2018-03-29T08:00:31.946Z,5.17
2018-03-29T08:01:38.090Z,5.25
2018-03-29T08:02:44.263Z,5.33
2018-03-29T08:03:50.366Z,5.39
2018-03-29T08:04:56.517Z,5.44
2018-03-29T08:06:02.659Z,5.41
2018-03-29T08:07:08.823Z,5.36
2018-03-29T08:08:15.136Z,5.41
2018-03-29T08:09:21.118Z,5.50
2018-03-29T08:10:27.463Z,5.74
2018-03-29T08:11:33.422Z,6.00
2018-03-29T08:12:39.603Z,6.23
2018-03-29T08:13:45.772Z,6.33
2018-03-29T08:14:51.930Z,6.32
2018-03-29T08:15:58.102Z,6.32
2018-03-29T08:17:04.285Z,6.47
2018-03-29T08:18:10.491Z,6.64
2018-03-29T08:19:16.653Z,6.90
2018-03-29T08:20:22.935Z,7.14
2018-03-29T08:21:29.053Z,7.25
2018-03-29T08:22:35.288Z,7.43
2018-03-29T08:23:41.448Z,7.75
2018-03-29T08:24:47.673Z,7.96
2018-03-29T08:25:53.872Z,8.22
2018-03-29T08:27:00.095Z,8.29
2018-03-29T08:28:06.341Z,8.25
2018-03-29T08:29:12.531Z,8.08
2018-03-29T08:30:18.773Z,7.93
2018-03-29T08:31:24.990Z,7.96
2018-03-29T08:32:31.224Z,8.16
2018-03-29T08:33:37.462Z,8.34
2018-03-29T08:34:43.686Z,8.34
2018-03-29T08:35:49.925Z,8.20
2018-03-29T08:36:56.163Z,8.11
2018-03-29T08:38:03.447Z,8.05
2018-03-29T08:39:08.816Z,8.23
2018-03-29T08:40:14.938Z,8.54
2018-03-29T08:41:21.107Z,8.84
2018-03-29T08:42:27.361Z,8.95
2018-03-29T08:43:33.620Z,9.12
2018-03-29T08:44:39.867Z,9.27
2018-03-29T08:45:46.143Z,9.35
2018-03-29T08:46:52.412Z,9.39
2018-03-29T08:47:58.712Z,9.39
2018-03-29T08:49:04.998Z,9.10
2018-03-29T08:50:11.245Z,8.79
2018-03-29T08:51:17.520Z,8.57
2018-03-29T08:52:23.788Z,8.53
2018-03-29T08:53:30.574Z,8.38
2018-03-29T08:54:36.357Z,8.43
2018-03-29T08:55:42.590Z,8.38
2018-03-29T08:56:48.938Z,8.50
2018-03-29T08:57:55.123Z,8.41
2018-03-29T08:59:01.437Z,8.36
2018-03-29T09:00:07.835Z,8.10
2018-03-29T09:01:13.920Z,7.89
2018-03-29T09:02:20.172Z,7.78
2018-03-29T09:03:26.421Z,7.63
2018-03-29T09:04:32.706Z,7.49
2018-03-29T09:05:38.904Z,7.44
2018-03-29T09:06:45.140Z,7.26
2018-03-29T09:07:51.391Z,7.21
2018-03-29T09:08:57.639Z,7.21
2018-03-29T09:10:03.890Z,7.30
2018-03-29T09:11:10.123Z,7.45
2018-03-29T09:12:16.351Z,7.59
2018-03-29T09:13:22.595Z,7.67
2018-03-29T09:14:28.949Z,7.76
2018-03-29T09:15:35.083Z,7.85
2018-03-29T09:16:41.336Z,7.98
2018-03-29T09:17:47.587Z,8.35
2018-03-29T09:18:53.838Z,8.72
2018-03-29T09:20:00.144Z,9.16
2018-03-29T09:21:06.444Z,9.38
2018-03-29T09:22:12.672Z,9.41
2018-03-29T09:23:18.957Z,9.54
2018-03-29T09:24:25.241Z,9.69
2018-03-29T09:25:31.565Z,9.97
2018-03-29T09:26:37.845Z,10.10
2018-03-29T09:27:44.161Z,10.29
2018-03-29T09:28:50.457Z,10.19
2018-03-29T09:29:56.778Z,10.12
2018-03-29T09:31:03.061Z,10.01
2018-03-29T09:32:09.380Z,9.92
2018-03-29T09:33:15.683Z,9.87
2018-03-29T09:34:21.988Z,10.11
2018-03-29T09:35:28.328Z,10.21
2018-03-29T09:36:34.620Z,10.48
2018-03-29T09:37:40.946Z,10.68
2018-03-29T09:38:47.287Z,10.88
2018-03-29T09:39:53.610Z,11.00
2018-03-29T09:40:59.962Z,11.04
2018-03-29T09:42:06.284Z,11.27
2018-03-29T09:43:12.634Z,11.49
2018-03-29T09:44:18.987Z,11.36
2018-03-29T09:45:25.354Z,11.31
2018-03-29T09:46:32.196Z,11.21
2018-03-29T09:47:38.049Z,11.19
2018-03-29T09:48:44.404Z,10.92
2018-03-29T09:49:50.757Z,10.64
2018-03-29T09:50:57.126Z,10.46
2018-03-29T09:52:03.941Z,10.41
2018-03-29T09:53:09.782Z,10.31
2018-03-29T09:54:16.112Z,10.04
2018-03-29T09:55:22.457Z,9.97
2018-03-29T09:56:29.304Z,9.95
2018-03-29T09:57:35.622Z,10.06
2018-03-29T09:58:41.456Z,10.10
2018-03-29T09:59:47.777Z,10.10
2018-03-29T10:00:54.600Z,10.09
2018-03-29T10:02:00.452Z,9.99
2018-03-29T10:03:06.746Z,9.78
2018-03-29T10:04:13.066Z,9.63
2018-03-29T10:05:19.388Z,9.54
2018-03-29T10:06:26.192Z,9.53
2018-03-29T10:07:32.487Z,9.48
2018-03-29T10:08:38.290Z,9.50
2018-03-29T10:09:44.614Z,9.67
2018-03-29T10:10:50.917Z,9.84
2018-03-29T10:11:57.246Z,10.04
2018-03-29T10:13:03.521Z,10.01
2018-03-29T10:14:09.825Z,10.02
2018-03-29T10:15:16.145Z,9.92
2018-03-29T10:16:22.482Z,10.00
2018-03-29T10:17:28.768Z,10.02
2018-03-29T10:18:35.071Z,10.15
2018-03-29T10:19:41.887Z,10.29
2018-03-29T10:20:47.711Z,10.40
2018-03-29T10:21:54.061Z,10.45
2018-03-29T10:23:00.371Z,10.62
2018-03-29T10:24:06.744Z,10.73
2018-03-29T10:25:13.053Z,10.92
2018-03-29T10:26:19.403Z,10.78
2018-03-29T10:27:25.747Z,10.82
2018-03-29T10:28:32.062Z,10.40
2018-03-29T10:29:38.955Z,10.63
2018-03-29T10:30:44.747Z,10.71
2018-03-29T10:31:51.101Z,10.85
2018-03-29T10:32:57.423Z,10.91
2018-03-29T10:34:03.778Z,11.02
2018-03-29T10:35:10.121Z,11.21
2018-03-29T10:36:16.464Z,11.22
2018-03-29T10:37:23.332Z,11.31
2018-03-29T10:38:29.167Z,11.30
2018-03-29T10:39:35.509Z,11.06
2018-03-29T10:40:41.863Z,10.76
2018-03-29T10:41:48.192Z,10.80
2018-03-29T10:42:54.557Z,10.80
2018-03-29T10:44:00.874Z,10.87
2018-03-29T10:45:07.235Z,10.80
2018-03-29T10:46:13.566Z,10.83
2018-03-29T10:47:19.931Z,10.74
2018-03-29T10:48:26.737Z,10.68
2018-03-29T10:49:32.596Z,10.63
2018-03-29T10:50:38.927Z,10.68
2018-03-29T10:51:45.274Z,10.73
2018-03-29T10:52:51.654Z,10.88
2018-03-29T10:53:57.958Z,10.98
2018-03-29T10:55:04.305Z,11.08
2018-03-29T10:56:10.670Z,11.14
2018-03-29T10:57:17.003Z,11.20
2018-03-29T10:58:23.380Z,11.26
2018-03-29T10:59:29.715Z,11.51
2018-03-29T11:00:36.554Z,11.73
2018-03-29T11:01:42.924Z,11.74
2018-03-29T11:02:48.840Z,11.95
2018-03-29T11:03:55.689Z,12.04
2018-03-29T11:05:01.551Z,12.22
2018-03-29T11:06:07.924Z,12.30
2018-03-29T11:07:14.297Z,12.33
2018-03-29T11:08:21.223Z,12.35
2018-03-29T11:09:27.068Z,11.97
2018-03-29T11:10:33.463Z,11.63
2018-03-29T11:11:39.845Z,11.27
2018-03-29T11:12:46.232Z,11.10
2018-03-29T11:13:52.631Z,10.92
2018-03-29T11:14:58.991Z,10.65
2018-03-29T11:16:05.360Z,10.45
2018-03-29T11:17:12.216Z,10.33
2018-03-29T11:18:18.116Z,10.28
2018-03-29T11:19:24.450Z,10.26
2018-03-29T11:20:30.799Z,10.22
2018-03-29T11:21:37.142Z,10.16
2018-03-29T11:22:43.486Z,10.26
2018-03-29T11:23:49.872Z,10.41
2018-03-29T11:24:56.366Z,10.63
2018-03-29T11:26:02.519Z,10.75
2018-03-29T11:27:08.941Z,11.03
2018-03-29T11:28:15.271Z,11.24
2018-03-29T11:29:21.624Z,11.45
2018-03-29T11:30:27.999Z,11.73
2018-03-29T11:31:34.388Z,11.97
2018-03-29T11:32:40.786Z,12.35
2018-03-29T11:33:47.242Z,12.63
2018-03-29T11:34:53.689Z,12.74
2018-03-29T11:36:00.345Z,12.66
2018-03-29T11:37:06.628Z,12.55
2018-03-29T11:38:13.122Z,12.47
2018-03-29T11:39:19.631Z,12.25
2018-03-29T11:40:26.572Z,12.21
2018-03-29T11:41:32.565Z,12.12
2018-03-29T11:42:39.079Z,12.08
2018-03-29T11:43:45.606Z,12.10
2018-03-29T11:44:52.625Z,12.32
2018-03-29T11:45:58.725Z,12.49
2018-03-29T11:47:05.333Z,12.49
2018-03-29T11:48:11.969Z,12.38
2018-03-29T11:49:18.622Z,12.38
2018-03-29T11:50:25.275Z,12.49
2018-03-29T11:51:31.996Z,12.55
2018-03-29T11:52:38.650Z,12.46
2018-03-29T11:53:45.310Z,12.41
2018-03-29T11:54:53.004Z,12.18
2018-03-29T11:55:58.537Z,12.06
2018-03-29T11:57:05.127Z,12.00
2018-03-29T11:58:12.206Z,11.98
2018-03-29T11:59:18.283Z,12.26
2018-03-29T12:00:24.892Z,12.70
2018-03-29T12:01:32.001Z,13.26
2018-03-29T12:02:38.680Z,13.90
2018-03-29T12:03:44.920Z,14.40
2018-03-29T12:04:51.869Z,14.66
2018-03-29T12:05:58.508Z,14.73
2018-03-29T12:07:05.872Z,14.76
2018-03-29T12:08:12.263Z,14.91
2018-03-29T12:09:19.206Z,14.98
2018-03-29T12:10:26.175Z,14.96
2018-03-29T12:11:33.114Z,14.66
2018-03-29T12:13:47.094Z,14.68
2018-03-29T12:14:54.174Z,14.85
2018-03-29T12:16:01.144Z,14.61
2018-03-29T12:17:08.141Z,14.38
2018-03-29T12:18:15.083Z,14.05
2018-03-29T12:19:21.992Z,13.78
2018-03-29T12:20:28.952Z,13.58
2018-03-29T12:21:35.675Z,13.47
2018-03-29T12:22:43.395Z,13.55
2018-03-29T12:23:49.205Z,13.49
2018-03-29T12:24:55.888Z,13.11
2018-03-29T12:26:02.574Z,12.16
2018-03-29T12:27:09.202Z,11.66
2018-03-29T12:28:15.817Z,11.39
2018-03-29T12:29:22.408Z,11.21
2018-03-29T12:30:28.992Z,11.00
2018-03-29T12:31:35.521Z,10.87
2018-03-29T12:32:42.100Z,10.83
2018-03-29T12:33:48.669Z,10.69
2018-03-29T12:34:55.320Z,10.78
2018-03-29T12:36:02.005Z,10.97
2018-03-29T12:37:08.668Z,11.08
2018-03-29T12:38:15.393Z,11.26
2018-03-29T12:39:22.143Z,11.61
2018-03-29T12:40:28.947Z,11.84
2018-03-29T12:41:35.736Z,12.07
2018-03-29T12:42:42.497Z,12.07
2018-03-29T12:43:49.280Z,12.14
2018-03-29T12:44:56.112Z,12.17
2018-03-29T12:46:02.890Z,12.15
2018-03-29T12:47:09.712Z,12.30
2018-03-29T12:48:16.549Z,12.12
2018-03-29T12:49:23.388Z,12.05
2018-03-29T12:50:30.193Z,12.23
2018-03-29T12:51:37.054Z,12.19
2018-03-29T12:52:43.880Z,12.14
2018-03-29T12:53:50.732Z,11.85
2018-03-29T12:54:57.602Z,11.60
2018-03-29T12:56:04.479Z,11.50
2018-03-29T12:57:11.367Z,11.18
2018-03-29T12:58:18.161Z,11.16
2018-03-29T12:59:24.984Z,11.26
2018-03-29T13:00:31.742Z,11.29
2018-03-29T13:01:38.526Z,11.32
2018-03-29T13:02:45.291Z,11.47
2018-03-29T13:03:52.108Z,11.74
2018-03-29T13:04:58.916Z,11.72
2018-03-29T13:06:05.696Z,11.63
2018-03-29T13:07:12.473Z,11.69
2018-03-29T13:08:19.214Z,11.91
2018-03-29T13:09:25.983Z,11.65
2018-03-29T13:10:32.755Z,11.58
2018-03-29T13:11:39.579Z,11.56
2018-03-29T13:12:46.303Z,11.69
2018-03-29T13:13:53.527Z,11.73
2018-03-29T13:14:59.719Z,11.69
2018-03-29T13:16:07.361Z,11.73
2018-03-29T13:17:13.044Z,11.65
2018-03-29T13:18:19.619Z,11.17
2018-03-29T13:19:26.200Z,10.78
2018-03-29T13:20:32.760Z,10.88
2018-03-29T13:21:39.312Z,10.90
2018-03-29T13:22:45.854Z,10.75
2018-03-29T13:23:52.342Z,10.79
2018-03-29T13:24:58.854Z,10.80
2018-03-29T13:26:05.313Z,10.92
2018-03-29T13:27:11.793Z,10.85
2018-03-29T13:28:18.286Z,10.79
2018-03-29T13:29:24.729Z,10.77
2018-03-29T13:30:31.173Z,10.86
2018-03-29T13:31:37.613Z,11.16
2018-03-29T13:32:44.075Z,11.06
2018-03-29T13:33:50.523Z,11.10
2018-03-29T13:34:56.949Z,11.01
2018-03-29T13:36:03.382Z,10.79
2018-03-29T13:37:09.818Z,10.74
2018-03-29T13:38:16.279Z,10.74
2018-03-29T13:39:22.695Z,10.70
2018-03-29T13:40:29.147Z,10.85
2018-03-29T13:41:35.593Z,11.10
2018-03-29T13:42:42.060Z,11.29
2018-03-29T13:43:48.477Z,11.32
2018-03-29T13:44:54.947Z,11.57
2018-03-29T13:46:01.441Z,11.81
2018-03-29T13:47:07.921Z,11.77
2018-03-29T13:48:14.475Z,12.01
2018-03-29T13:49:21.012Z,12.04
2018-03-29T13:50:27.579Z,12.19
2018-03-29T13:51:34.165Z,12.50
2018-03-29T13:52:41.264Z,12.75
2018-03-29T13:53:47.425Z,12.80
2018-03-29T13:54:54.064Z,12.91
2018-03-29T13:56:00.734Z,13.08
2018-03-29T13:57:07.416Z,12.64
2018-03-29T13:58:14.114Z,12.68
2018-03-29T13:59:20.835Z,12.64
2018-03-29T14:00:27.553Z,12.76
2018-03-29T14:01:34.351Z,12.92
2018-03-29T14:02:41.314Z,13.09
2018-03-29T14:03:47.495Z,13.22
2018-03-29T14:04:54.108Z,13.42
2018-03-29T14:06:00.756Z,13.56
2018-03-29T14:07:07.322Z,13.60
2018-03-29T14:08:13.911Z,13.68
2018-03-29T14:09:20.534Z,13.74
2018-03-29T14:10:27.095Z,13.91
2018-03-29T14:11:33.673Z,14.05
2018-03-29T14:12:40.255Z,14.20
2018-03-29T14:13:46.816Z,14.28
2018-03-29T14:14:53.404Z,14.10
2018-03-29T14:15:59.908Z,13.77
2018-03-29T14:17:06.442Z,13.22
2018-03-29T14:18:13.005Z,13.25
2018-03-29T14:19:19.517Z,13.18
2018-03-29T14:20:25.953Z,13.05
2018-03-29T14:21:32.432Z,12.92
2018-03-29T14:22:38.910Z,12.78
2018-03-29T14:23:45.375Z,12.76
2018-03-29T14:24:51.860Z,12.70
2018-03-29T14:25:58.282Z,12.79
2018-03-29T14:27:04.739Z,12.81
2018-03-29T14:28:11.185Z,12.91
2018-03-29T14:29:17.647Z,12.87
2018-03-29T14:30:24.109Z,12.97
2018-03-29T14:31:31.013Z,12.96
2018-03-29T14:32:36.984Z,12.93